Forside
METAR-TAF:

METAR-TAF

Lufthavne :

Olney-Noble Airport

Olney-Noble, Illinois, USA

Breddekreds: 38-43-19N, længdekreds: 088-10-35W, højde: 147 m

Aktuelle vejr

Denne rapport blev lavet for 25 minutter siden, kl. 21:55 UTC
Vind stille
Temperatur 5°C
Fugtighed 70%
Tryk 1014 hPa
Sigt: 16.1 km
skyfri

METAR: KOLY 262155Z AUTO 00000KT 10SM CLR 05/00 A2995 RMK AO2 T00510001

Tid: 16:20 (22:20 UTC)


TAF: fraværende

Vejrobservationer og prognoser fra mere end 4000 lufthavne (METAR og TAF).

De gule og røde prikker repræsenterer de meteorologiske stationer.

Flyt musen over at se navnet på stationen.

Så klik over at se vejr observationer og prognoser.

At skifte det kort: Klik på de grønne knapper med et sort kors for at zoome ind; på den grønne knap med en bindestreg for at zoome ud; eller på de grønne pile for tilstødende kort.


METAR-TAF: